Alliance, OH (44601)

5:27 PM EDT on September 03, 2015 (GMT -0400)
Alliance WX | | Change Station
CLOSE
Current Station
Personal Weather Station
Location: Alliance, OH
Elevation: 1204 ft
Nearby Weather Stations

Elev 1204 ft 40.92 °N, 81.13 °W | Updated 3 minutes ago

Mostly Cloudy
Mostly Cloudy
76.7 °F
Feels Like 78 °F
N
0.0
Wind Variable Wind from NW
Gusts 0.0 mph

Today
High -- | Low -- °F
--% Chance of Precip.
Yesterday
High -- | Low -- °F
Precip. -- in
6:53 AM 7:54 PM
Waning Gibbous, 67% visible
Pressure 29.96 in
Visibility 7.0 miles
Clouds Mostly Cloudy 6500 ft
Mostly Cloudy 11000 ft
Overcast 25000 ft
Heat Index 78 °F
Dew Point 69 °F
Humidity 78%
Rainfall 0.00 in
Snow Depth Not available.
UV 1 out of 12
Pollen 10.30 out of 12
Air Quality Not available.
Flu Activity Not available.
METAR KCAK 032051Z 33007KT 7SM -TSRA BKN065CB BKN110 OVC250 21/18 A2997 RMK AO2 PK WND 29027/2008 WSHFT 1947 RAB1957 TSB1957 SLP143 OCNL LTGICCG NW-NE TS NW-NE MOV E P0014 60014 T02110178 55005
Pressure 29.96 in
Visibility 7.0 miles
Clouds Mostly Cloudy 6500 ft
Mostly Cloudy 11000 ft
Overcast 25000 ft
Heat Index 78 °F
Dew Point 69 °F
Humidity 78%
Rainfall 0.00 in
Snow Depth Not available.
UV 1 out of 12
Pollen 10.30 out of 12
Air Quality Not available.
Flu Activity Not available.
METAR KCAK 032051Z 33007KT 7SM -TSRA BKN065CB BKN110 OVC250 21/18 A2997 RMK AO2 PK WND 29027/2008 WSHFT 1947 RAB1957 TSB1957 SLP143 OCNL LTGICCG NW-NE TS NW-NE MOV E P0014 60014 T02110178 55005

10-Day Weather Forecast

×

Almanac

Astronomy

Sep. 03, 2015 Rise Set
Actual Time
Civil Twilight
Nautical Twilight
Astronomical Twilight
Moon
Length of Visible Light
Length of Day
Tomorrow will be .
, % of the Moon is Illuminated

Today's Extremes

State Highs State Lows

Community

WunderPhotos

Upload Photos

1,852,038 photos uploaded!

WunderBlogs® & News

Nearby

Air Quality

  Air Quality AQ Index Pollutant
Not available.

Snow Depth

Station Depth Elevation

Earthquake Activity

City Distance Mag. Time & Date
Minimum magnitude displayed is 2.5.

Coastal Water Temperatures

Place Temperature

Stations

Nearby Weather Stations

Station Location Temp. Windchill Dew Point Humidity Wind Precip. Elev Updated Type